Weather at Calaf-Sallavinera Airport

Public forecast

Using degrees Celsius for public forecast. Weather courtesy of forecast.io.

Closest aviation weather report (METAR) to Calaf-Sallavinera Airport

Closest report is Sabadell Airport, 28.0 nm (51.9 km) ESE. Retrieved 2020/09/29 13:30 UTC (5 minutes ago):

LELL 291330Z 13009KT 080V160 9999 FEW040 24/15 Q1017

Closest aviation forecast (TAF) to Calaf-Sallavinera Airport

Closest forecast is Sabadell Airport, 28.0 nm (51.9 km) ESE. Retrieved 2020/09/29 09:00 UTC (5 hours ago):

TAF LELL 290800Z 2909/3009 24010KT 9999 FEW020 TX26/2913Z TN11/3005Z TEMPO 2909/2911 VRB02KT BECMG 2918/2920 VRB03KT